sensor_id;sensor_type;location;lat;lon;timestamp;P1;durP1;ratioP1;P2;durP2;ratioP2
23400;SDS011;11873;49.300;8.920;2023-05-01T00:02:38;5.60;;;3.80;;
23400;SDS011;11873;49.300;8.920;2023-05-01T00:07:38;4.57;;;4.17;;
23400;SDS011;11873;49.300;8.920;2023-05-01T00:12:38;4.37;;;3.97;;
23400;SDS011;11873;49.300;8.920;2023-05-01T00:17:38;4.30;;;3.80;;
23400;SDS011;11873;49.300;8.920;2023-05-01T00:22:38;3.83;;;3.40;;
23400;SDS011;11873;49.300;8.920;2023-05-01T00:27:38;3.73;;;3.40;;
23400;SDS011;11873;49.300;8.920;2023-05-01T00:32:39;5.87;;;3.90;;
23400;SDS011;11873;49.300;8.920;2023-05-01T00:37:39;6.63;;;3.40;;
23400;SDS011;11873;49.300;8.920;2023-05-01T00:42:39;6.00;;;3.57;;
23400;SDS011;11873;49.300;8.920;2023-05-01T00:47:39;3.60;;;3.30;;
23400;SDS011;11873;49.300;8.920;2023-05-01T00:52:39;4.90;;;3.20;;
23400;SDS011;11873;49.300;8.920;2023-05-01T00:57:40;3.75;;;3.33;;
23400;SDS011;11873;49.300;8.920;2023-05-01T01:02:40;3.93;;;3.57;;
23400;SDS011;11873;49.300;8.920;2023-05-01T01:07:41;4.87;;;3.13;;
23400;SDS011;11873;49.300;8.920;2023-05-01T01:12:55;3.60;;;3.07;;
23400;SDS011;11873;49.300;8.920;2023-05-01T01:18:04;4.00;;;3.27;;
23400;SDS011;11873;49.300;8.920;2023-05-01T01:23:23;4.13;;;3.73;;
23400;SDS011;11873;49.300;8.920;2023-05-01T01:28:38;4.17;;;3.17;;
23400;SDS011;11873;49.300;8.920;2023-05-01T01:33:48;3.13;;;2.83;;
23400;SDS011;11873;49.300;8.920;2023-05-01T01:39:01;3.10;;;2.90;;
23400;SDS011;11873;49.300;8.920;2023-05-01T01:44:14;3.83;;;2.90;;
23400;SDS011;11873;49.300;8.920;2023-05-01T01:49:19;2.63;;;2.43;;
23400;SDS011;11873;49.300;8.920;2023-05-01T01:54:25;7.80;;;3.00;;
23400;SDS011;11873;49.300;8.920;2023-05-01T01:59:29;2.83;;;2.30;;
23400;SDS011;11873;49.300;8.920;2023-05-01T02:04:30;3.60;;;2.30;;
23400;SDS011;11873;49.300;8.920;2023-05-01T02:09:31;2.60;;;2.40;;
23400;SDS011;11873;49.300;8.920;2023-05-01T02:14:31;3.07;;;2.50;;
23400;SDS011;11873;49.300;8.920;2023-05-01T02:19:32;2.47;;;2.03;;
23400;SDS011;11873;49.300;8.920;2023-05-01T02:24:33;3.60;;;2.20;;
23400;SDS011;11873;49.300;8.920;2023-05-01T02:29:34;2.40;;;2.20;;
23400;SDS011;11873;49.300;8.920;2023-05-01T02:34:34;3.83;;;2.53;;
23400;SDS011;11873;49.300;8.920;2023-05-01T02:39:35;2.30;;;2.20;;
23400;SDS011;11873;49.300;8.920;2023-05-01T02:44:37;2.60;;;2.40;;
23400;SDS011;11873;49.300;8.920;2023-05-01T02:49:38;3.00;;;2.40;;
23400;SDS011;11873;49.300;8.920;2023-05-01T02:54:39;2.53;;;2.27;;
23400;SDS011;11873;49.300;8.920;2023-05-01T02:59:40;3.57;;;2.10;;
23400;SDS011;11873;49.300;8.920;2023-05-01T03:04:40;3.73;;;2.30;;
23400;SDS011;11873;49.300;8.920;2023-05-01T03:09:41;2.70;;;2.30;;
23400;SDS011;11873;49.300;8.920;2023-05-01T03:14:41;2.37;;;2.20;;
23400;SDS011;11873;49.300;8.920;2023-05-01T03:19:41;2.43;;;2.13;;
23400;SDS011;11873;49.300;8.920;2023-05-01T03:24:41;2.20;;;2.10;;
23400;SDS011;11873;49.300;8.920;2023-05-01T03:29:41;3.80;;;2.67;;
23400;SDS011;11873;49.300;8.920;2023-05-01T03:34:41;2.57;;;2.37;;
23400;SDS011;11873;49.300;8.920;2023-05-01T03:39:42;3.70;;;2.20;;
23400;SDS011;11873;49.300;8.920;2023-05-01T03:44:42;2.53;;;2.30;;
23400;SDS011;11873;49.300;8.920;2023-05-01T03:49:42;4.60;;;2.70;;
23400;SDS011;11873;49.300;8.920;2023-05-01T03:54:42;3.40;;;2.33;;
23400;SDS011;11873;49.300;8.920;2023-05-01T03:59:42;3.97;;;2.30;;
23400;SDS011;11873;49.300;8.920;2023-05-01T04:04:42;5.70;;;2.57;;
23400;SDS011;11873;49.300;8.920;2023-05-01T04:09:43;3.00;;;2.70;;
23400;SDS011;11873;49.300;8.920;2023-05-01T04:14:43;2.87;;;2.63;;
23400;SDS011;11873;49.300;8.920;2023-05-01T04:19:43;2.50;;;2.30;;
23400;SDS011;11873;49.300;8.920;2023-05-01T04:24:43;2.50;;;2.00;;
23400;SDS011;11873;49.300;8.920;2023-05-01T04:29:44;2.53;;;2.33;;
23400;SDS011;11873;49.300;8.920;2023-05-01T04:34:44;3.73;;;2.30;;
23400;SDS011;11873;49.300;8.920;2023-05-01T04:39:44;2.97;;;2.40;;
23400;SDS011;11873;49.300;8.920;2023-05-01T04:44:44;2.93;;;1.90;;
23400;SDS011;11873;49.300;8.920;2023-05-01T04:49:44;2.17;;;2.07;;
23400;SDS011;11873;49.300;8.920;2023-05-01T04:54:44;2.83;;;2.40;;
23400;SDS011;11873;49.300;8.920;2023-05-01T04:59:45;2.90;;;2.70;;
23400;SDS011;11873;49.300;8.920;2023-05-01T05:04:45;2.90;;;2.50;;
23400;SDS011;11873;49.300;8.920;2023-05-01T05:09:45;2.60;;;2.40;;
23400;SDS011;11873;49.300;8.920;2023-05-01T05:14:45;2.57;;;2.37;;
23400;SDS011;11873;49.300;8.920;2023-05-01T05:19:45;2.43;;;2.23;;
23400;SDS011;11873;49.300;8.920;2023-05-01T05:24:46;4.03;;;2.93;;
23400;SDS011;11873;49.300;8.920;2023-05-01T05:29:46;6.50;;;3.40;;
23400;SDS011;11873;49.300;8.920;2023-05-01T05:34:46;4.40;;;3.10;;
23400;SDS011;11873;49.300;8.920;2023-05-01T05:39:46;2.97;;;2.60;;
23400;SDS011;11873;49.300;8.920;2023-05-01T05:44:46;2.67;;;2.47;;
23400;SDS011;11873;49.300;8.920;2023-05-01T05:49:46;3.80;;;3.00;;
23400;SDS011;11873;49.300;8.920;2023-05-01T05:54:46;4.07;;;3.40;;
23400;SDS011;11873;49.300;8.920;2023-05-01T05:59:47;3.80;;;3.50;;
23400;SDS011;11873;49.300;8.920;2023-05-01T06:04:47;3.50;;;2.83;;
23400;SDS011;11873;49.300;8.920;2023-05-01T06:09:47;2.47;;;2.27;;
23400;SDS011;11873;49.300;8.920;2023-05-01T06:14:47;4.30;;;2.93;;
23400;SDS011;11873;49.300;8.920;2023-05-01T06:19:47;3.40;;;3.10;;
23400;SDS011;11873;49.300;8.920;2023-05-01T06:24:47;3.43;;;3.10;;
23400;SDS011;11873;49.300;8.920;2023-05-01T06:29:48;3.60;;;3.10;;
23400;SDS011;11873;49.300;8.920;2023-05-01T06:34:48;2.87;;;2.67;;
23400;SDS011;11873;49.300;8.920;2023-05-01T06:39:48;3.87;;;2.90;;
23400;SDS011;11873;49.300;8.920;2023-05-01T06:44:49;2.73;;;2.53;;
23400;SDS011;11873;49.300;8.920;2023-05-01T06:49:49;3.07;;;2.87;;
23400;SDS011;11873;49.300;8.920;2023-05-01T06:54:49;2.40;;;2.30;;
23400;SDS011;11873;49.300;8.920;2023-05-01T06:59:49;4.70;;;3.40;;
23400;SDS011;11873;49.300;8.920;2023-05-01T07:04:49;3.23;;;3.00;;
23400;SDS011;11873;49.300;8.920;2023-05-01T07:09:49;3.27;;;2.97;;
23400;SDS011;11873;49.300;8.920;2023-05-01T07:14:50;3.73;;;3.00;;
23400;SDS011;11873;49.300;8.920;2023-05-01T07:19:50;4.17;;;3.30;;
23400;SDS011;11873;49.300;8.920;2023-05-01T07:24:50;3.40;;;3.10;;
23400;SDS011;11873;49.300;8.920;2023-05-01T07:29:50;4.67;;;3.13;;
23400;SDS011;11873;49.300;8.920;2023-05-01T07:34:50;4.43;;;2.70;;
23400;SDS011;11873;49.300;8.920;2023-05-01T07:39:51;2.97;;;2.40;;
23400;SDS011;11873;49.300;8.920;2023-05-01T07:44:51;2.83;;;2.27;;
23400;SDS011;11873;49.300;8.920;2023-05-01T07:49:51;3.27;;;2.97;;
23400;SDS011;11873;49.300;8.920;2023-05-01T07:54:51;2.67;;;2.47;;
23400;SDS011;11873;49.300;8.920;2023-05-01T07:59:54;3.37;;;3.07;;
23400;SDS011;11873;49.300;8.920;2023-05-01T08:04:55;3.60;;;3.30;;
23400;SDS011;11873;49.300;8.920;2023-05-01T08:09:55;2.93;;;2.67;;
23400;SDS011;11873;49.300;8.920;2023-05-01T08:14:55;3.60;;;3.07;;
23400;SDS011;11873;49.300;8.920;2023-05-01T08:19:55;2.87;;;2.57;;
23400;SDS011;11873;49.300;8.920;2023-05-01T08:24:55;5.03;;;3.30;;
23400;SDS011;11873;49.300;8.920;2023-05-01T08:29:56;4.07;;;3.30;;
23400;SDS011;11873;49.300;8.920;2023-05-01T08:34:56;3.43;;;3.07;;
23400;SDS011;11873;49.300;8.920;2023-05-01T08:39:56;3.10;;;2.83;;
23400;SDS011;11873;49.300;8.920;2023-05-01T08:44:56;3.53;;;3.20;;
23400;SDS011;11873;49.300;8.920;2023-05-01T08:49:58;3.80;;;3.00;;
23400;SDS011;11873;49.300;8.920;2023-05-01T08:54:58;3.63;;;2.83;;
23400;SDS011;11873;49.300;8.920;2023-05-01T08:59:59;4.40;;;3.60;;
23400;SDS011;11873;49.300;8.920;2023-05-01T09:05:00;4.10;;;3.33;;
23400;SDS011;11873;49.300;8.920;2023-05-01T09:10:01;4.07;;;3.47;;
23400;SDS011;11873;49.300;8.920;2023-05-01T09:15:01;4.13;;;3.10;;
23400;SDS011;11873;49.300;8.920;2023-05-01T09:20:02;2.63;;;2.43;;
23400;SDS011;11873;49.300;8.920;2023-05-01T09:25:03;3.27;;;2.97;;
23400;SDS011;11873;49.300;8.920;2023-05-01T09:30:06;3.20;;;2.90;;
23400;SDS011;11873;49.300;8.920;2023-05-01T09:35:11;3.70;;;3.40;;
23400;SDS011;11873;49.300;8.920;2023-05-01T09:40:12;4.47;;;3.50;;
23400;SDS011;11873;49.300;8.920;2023-05-01T09:45:13;3.83;;;3.20;;
23400;SDS011;11873;49.300;8.920;2023-05-01T09:50:27;2.90;;;2.47;;
23400;SDS011;11873;49.300;8.920;2023-05-01T09:55:27;2.90;;;2.70;;
23400;SDS011;11873;49.300;8.920;2023-05-01T10:00:27;4.23;;;2.80;;
23400;SDS011;11873;49.300;8.920;2023-05-01T10:05:28;4.00;;;3.53;;
23400;SDS011;11873;49.300;8.920;2023-05-01T10:10:41;3.40;;;3.10;;
23400;SDS011;11873;49.300;8.920;2023-05-01T10:15:41;3.03;;;2.77;;
23400;SDS011;11873;49.300;8.920;2023-05-01T10:20:41;3.07;;;2.87;;
23400;SDS011;11873;49.300;8.920;2023-05-01T10:25:44;2.90;;;2.63;;
23400;SDS011;11873;49.300;8.920;2023-05-01T10:30:46;5.13;;;4.50;;
23400;SDS011;11873;49.300;8.920;2023-05-01T10:35:48;5.80;;;4.47;;
23400;SDS011;11873;49.300;8.920;2023-05-01T10:40:53;7.60;;;4.30;;
23400;SDS011;11873;49.300;8.920;2023-05-01T10:45:54;3.40;;;3.10;;
23400;SDS011;11873;49.300;8.920;2023-05-01T10:51:15;4.83;;;4.40;;
23400;SDS011;11873;49.300;8.920;2023-05-01T11:01:31;4.70;;;4.03;;
23400;SDS011;11873;49.300;8.920;2023-05-01T11:06:31;4.23;;;3.83;;
23400;SDS011;11873;49.300;8.920;2023-05-01T11:21:38;4.43;;;3.80;;
23400;SDS011;11873;49.300;8.920;2023-05-01T11:26:39;4.43;;;3.80;;
23400;SDS011;11873;49.300;8.920;2023-05-01T11:31:39;6.00;;;4.67;;
23400;SDS011;11873;49.300;8.920;2023-05-01T11:36:50;4.17;;;3.80;;
23400;SDS011;11873;49.300;8.920;2023-05-01T11:41:50;4.77;;;3.40;;
23400;SDS011;11873;49.300;8.920;2023-05-01T11:47:04;4.90;;;4.40;;
23400;SDS011;11873;49.300;8.920;2023-05-01T11:52:04;4.20;;;3.80;;
23400;SDS011;11873;49.300;8.920;2023-05-01T11:57:05;3.90;;;3.50;;
23400;SDS011;11873;49.300;8.920;2023-05-01T12:02:05;4.23;;;3.83;;
23400;SDS011;11873;49.300;8.920;2023-05-01T12:07:22;4.20;;;3.77;;
23400;SDS011;11873;49.300;8.920;2023-05-01T12:12:22;4.43;;;3.73;;
23400;SDS011;11873;49.300;8.920;2023-05-01T12:17:22;3.97;;;3.67;;
23400;SDS011;11873;49.300;8.920;2023-05-01T12:22:22;2.73;;;2.53;;
23400;SDS011;11873;49.300;8.920;2023-05-01T12:27:23;5.23;;;4.20;;
23400;SDS011;11873;49.300;8.920;2023-05-01T12:32:28;3.13;;;2.93;;
23400;SDS011;11873;49.300;8.920;2023-05-01T12:37:29;5.93;;;3.93;;
23400;SDS011;11873;49.300;8.920;2023-05-01T12:42:30;4.40;;;3.90;;
23400;SDS011;11873;49.300;8.920;2023-05-01T12:47:37;4.27;;;3.87;;
23400;SDS011;11873;49.300;8.920;2023-05-01T12:52:37;3.50;;;3.30;;
23400;SDS011;11873;49.300;8.920;2023-05-01T12:57:52;2.60;;;2.40;;
23400;SDS011;11873;49.300;8.920;2023-05-01T13:02:53;3.27;;;3.07;;
23400;SDS011;11873;49.300;8.920;2023-05-01T13:07:53;4.00;;;3.60;;
23400;SDS011;11873;49.300;8.920;2023-05-01T13:12:53;4.07;;;3.77;;
23400;SDS011;11873;49.300;8.920;2023-05-01T13:17:53;3.57;;;3.27;;
23400;SDS011;11873;49.300;8.920;2023-05-01T13:23:08;4.63;;;3.50;;
23400;SDS011;11873;49.300;8.920;2023-05-01T13:28:08;3.57;;;3.27;;
23400;SDS011;11873;49.300;8.920;2023-05-01T13:33:09;2.93;;;2.73;;
23400;SDS011;11873;49.300;8.920;2023-05-01T13:38:09;3.43;;;3.13;;
23400;SDS011;11873;49.300;8.920;2023-05-01T13:43:12;3.90;;;3.60;;
23400;SDS011;11873;49.300;8.920;2023-05-01T13:48:13;3.00;;;2.80;;
23400;SDS011;11873;49.300;8.920;2023-05-01T13:53:15;4.57;;;4.17;;
23400;SDS011;11873;49.300;8.920;2023-05-01T13:58:15;3.90;;;3.23;;
23400;SDS011;11873;49.300;8.920;2023-05-01T14:03:16;3.03;;;2.80;;
23400;SDS011;11873;49.300;8.920;2023-05-01T14:08:18;3.63;;;3.27;;
23400;SDS011;11873;49.300;8.920;2023-05-01T14:13:19;2.27;;;1.97;;
23400;SDS011;11873;49.300;8.920;2023-05-01T14:18:19;4.00;;;3.23;;
23400;SDS011;11873;49.300;8.920;2023-05-01T14:23:19;2.97;;;2.77;;
23400;SDS011;11873;49.300;8.920;2023-05-01T14:28:19;4.50;;;3.10;;
23400;SDS011;11873;49.300;8.920;2023-05-01T14:33:19;4.37;;;3.97;;
23400;SDS011;11873;49.300;8.920;2023-05-01T14:38:23;2.47;;;2.27;;
23400;SDS011;11873;49.300;8.920;2023-05-01T14:43:24;2.37;;;2.20;;
23400;SDS011;11873;49.300;8.920;2023-05-01T14:48:29;2.63;;;2.43;;
23400;SDS011;11873;49.300;8.920;2023-05-01T14:53:33;2.70;;;2.50;;
23400;SDS011;11873;49.300;8.920;2023-05-01T14:58:33;4.00;;;2.60;;
23400;SDS011;11873;49.300;8.920;2023-05-01T15:03:33;3.43;;;2.53;;
23400;SDS011;11873;49.300;8.920;2023-05-01T15:08:34;2.90;;;2.40;;
23400;SDS011;11873;49.300;8.920;2023-05-01T15:13:34;3.07;;;2.57;;
23400;SDS011;11873;49.300;8.920;2023-05-01T15:18:34;3.73;;;2.43;;
23400;SDS011;11873;49.300;8.920;2023-05-01T15:23:34;2.50;;;2.30;;
23400;SDS011;11873;49.300;8.920;2023-05-01T15:28:35;2.10;;;2.00;;
23400;SDS011;11873;49.300;8.920;2023-05-01T15:33:35;2.70;;;2.50;;
23400;SDS011;11873;49.300;8.920;2023-05-01T15:38:35;2.47;;;2.27;;
23400;SDS011;11873;49.300;8.920;2023-05-01T15:43:35;1.97;;;1.87;;
23400;SDS011;11873;49.300;8.920;2023-05-01T15:48:37;2.13;;;2.03;;
23400;SDS011;11873;49.300;8.920;2023-05-01T15:53:37;3.10;;;2.80;;
23400;SDS011;11873;49.300;8.920;2023-05-01T15:58:37;3.23;;;2.93;;
23400;SDS011;11873;49.300;8.920;2023-05-01T16:03:38;3.70;;;3.40;;
23400;SDS011;11873;49.300;8.920;2023-05-01T16:08:38;3.40;;;3.10;;
23400;SDS011;11873;49.300;8.920;2023-05-01T16:13:39;2.92;;;2.67;;
23400;SDS011;11873;49.300;8.920;2023-05-01T16:18:40;3.43;;;3.20;;
23400;SDS011;11873;49.300;8.920;2023-05-01T16:23:40;4.90;;;3.50;;
23400;SDS011;11873;49.300;8.920;2023-05-01T16:28:40;3.30;;;3.00;;
23400;SDS011;11873;49.300;8.920;2023-05-01T16:33:41;2.72;;;2.53;;
23400;SDS011;11873;49.300;8.920;2023-05-01T16:38:41;4.10;;;2.73;;
23400;SDS011;11873;49.300;8.920;2023-05-01T16:43:41;4.20;;;2.73;;
23400;SDS011;11873;49.300;8.920;2023-05-01T16:48:42;3.70;;;3.40;;
23400;SDS011;11873;49.300;8.920;2023-05-01T16:53:42;3.73;;;3.43;;
23400;SDS011;11873;49.300;8.920;2023-05-01T16:58:42;3.33;;;3.03;;
23400;SDS011;11873;49.300;8.920;2023-05-01T17:03:42;2.97;;;2.77;;
23400;SDS011;11873;49.300;8.920;2023-05-01T17:08:42;3.30;;;3.00;;
23400;SDS011;11873;49.300;8.920;2023-05-01T17:13:42;4.30;;;3.83;;
23400;SDS011;11873;49.300;8.920;2023-05-01T17:18:43;7.03;;;3.27;;
23400;SDS011;11873;49.300;8.920;2023-05-01T17:23:43;8.03;;;7.13;;
23400;SDS011;11873;49.300;8.920;2023-05-01T17:28:43;5.27;;;4.20;;
23400;SDS011;11873;49.300;8.920;2023-05-01T17:33:43;4.03;;;3.70;;
23400;SDS011;11873;49.300;8.920;2023-05-01T17:38:44;6.90;;;3.70;;
23400;SDS011;11873;49.300;8.920;2023-05-01T17:43:44;3.80;;;3.50;;
23400;SDS011;11873;49.300;8.920;2023-05-01T17:48:44;6.57;;;4.10;;
23400;SDS011;11873;49.300;8.920;2023-05-01T17:53:44;4.43;;;3.57;;
23400;SDS011;11873;49.300;8.920;2023-05-01T17:58:44;3.70;;;3.43;;
23400;SDS011;11873;49.300;8.920;2023-05-01T18:03:44;5.13;;;4.10;;
23400;SDS011;11873;49.300;8.920;2023-05-01T18:08:44;7.63;;;6.67;;
23400;SDS011;11873;49.300;8.920;2023-05-01T18:13:45;3.53;;;3.27;;
23400;SDS011;11873;49.300;8.920;2023-05-01T18:18:45;3.87;;;3.57;;
23400;SDS011;11873;49.300;8.920;2023-05-01T18:23:45;4.17;;;3.20;;
23400;SDS011;11873;49.300;8.920;2023-05-01T18:28:45;8.10;;;4.60;;
23400;SDS011;11873;49.300;8.920;2023-05-01T18:33:46;3.90;;;3.60;;
23400;SDS011;11873;49.300;8.920;2023-05-01T18:38:46;3.73;;;3.43;;
23400;SDS011;11873;49.300;8.920;2023-05-01T18:43:46;4.30;;;3.67;;
23400;SDS011;11873;49.300;8.920;2023-05-01T18:48:46;5.17;;;4.40;;
23400;SDS011;11873;49.300;8.920;2023-05-01T18:53:46;4.00;;;3.60;;
23400;SDS011;11873;49.300;8.920;2023-05-01T18:58:46;6.10;;;4.57;;
23400;SDS011;11873;49.300;8.920;2023-05-01T19:03:46;4.33;;;3.93;;
23400;SDS011;11873;49.300;8.920;2023-05-01T19:08:47;4.60;;;4.20;;
23400;SDS011;11873;49.300;8.920;2023-05-01T19:13:47;5.67;;;4.10;;
23400;SDS011;11873;49.300;8.920;2023-05-01T19:18:47;6.60;;;4.30;;
23400;SDS011;11873;49.300;8.920;2023-05-01T19:23:47;4.10;;;3.70;;
23400;SDS011;11873;49.300;8.920;2023-05-01T19:28:47;4.70;;;4.03;;
23400;SDS011;11873;49.300;8.920;2023-05-01T19:33:48;5.80;;;5.17;;
23400;SDS011;11873;49.300;8.920;2023-05-01T19:38:48;7.90;;;5.30;;
23400;SDS011;11873;49.300;8.920;2023-05-01T19:43:48;8.87;;;5.27;;
23400;SDS011;11873;49.300;8.920;2023-05-01T19:48:49;6.53;;;4.80;;
23400;SDS011;11873;49.300;8.920;2023-05-01T19:53:49;9.33;;;5.33;;
23400;SDS011;11873;49.300;8.920;2023-05-01T19:58:51;5.23;;;4.70;;
23400;SDS011;11873;49.300;8.920;2023-05-01T20:03:51;5.03;;;3.97;;
23400;SDS011;11873;49.300;8.920;2023-05-01T20:08:52;4.17;;;3.80;;
23400;SDS011;11873;49.300;8.920;2023-05-01T20:13:52;3.93;;;3.63;;
23400;SDS011;11873;49.300;8.920;2023-05-01T20:18:52;4.10;;;3.70;;
23400;SDS011;11873;49.300;8.920;2023-05-01T20:23:52;4.67;;;3.80;;
23400;SDS011;11873;49.300;8.920;2023-05-01T20:28:52;6.50;;;4.20;;
23400;SDS011;11873;49.300;8.920;2023-05-01T20:33:53;4.23;;;3.83;;
23400;SDS011;11873;49.300;8.920;2023-05-01T20:38:53;4.20;;;3.70;;
23400;SDS011;11873;49.300;8.920;2023-05-01T20:43:56;4.60;;;3.97;;
23400;SDS011;11873;49.300;8.920;2023-05-01T20:48:56;4.90;;;4.40;;
23400;SDS011;11873;49.300;8.920;2023-05-01T20:53:56;5.20;;;4.73;;
23400;SDS011;11873;49.300;8.920;2023-05-01T20:58:56;5.23;;;4.40;;
23400;SDS011;11873;49.300;8.920;2023-05-01T21:03:57;5.30;;;4.03;;
23400;SDS011;11873;49.300;8.920;2023-05-01T21:08:58;5.87;;;4.00;;
23400;SDS011;11873;49.300;8.920;2023-05-01T21:13:58;4.33;;;3.57;;
23400;SDS011;11873;49.300;8.920;2023-05-01T21:18:58;3.37;;;3.07;;
23400;SDS011;11873;49.300;8.920;2023-05-01T21:23:58;4.10;;;3.73;;
23400;SDS011;11873;49.300;8.920;2023-05-01T21:28:59;3.60;;;3.30;;
23400;SDS011;11873;49.300;8.920;2023-05-01T21:33:59;3.30;;;3.00;;
23400;SDS011;11873;49.300;8.920;2023-05-01T21:39:00;3.90;;;3.60;;
23400;SDS011;11873;49.300;8.920;2023-05-01T21:44:01;3.27;;;3.07;;
23400;SDS011;11873;49.300;8.920;2023-05-01T21:49:02;4.47;;;4.07;;
23400;SDS011;11873;49.300;8.920;2023-05-01T21:54:02;7.57;;;3.63;;
23400;SDS011;11873;49.300;8.920;2023-05-01T21:59:03;3.80;;;3.50;;
23400;SDS011;11873;49.300;8.920;2023-05-01T22:04:03;4.30;;;3.53;;
23400;SDS011;11873;49.300;8.920;2023-05-01T22:09:04;5.53;;;4.03;;
23400;SDS011;11873;49.300;8.920;2023-05-01T22:14:04;4.10;;;3.80;;
23400;SDS011;11873;49.300;8.920;2023-05-01T22:19:04;4.10;;;3.80;;
23400;SDS011;11873;49.300;8.920;2023-05-01T22:24:04;4.60;;;3.90;;
23400;SDS011;11873;49.300;8.920;2023-05-01T22:29:04;5.47;;;4.05;;
23400;SDS011;11873;49.300;8.920;2023-05-01T22:34:04;4.50;;;3.70;;
23400;SDS011;11873;49.300;8.920;2023-05-01T22:39:05;5.50;;;4.17;;
23400;SDS011;11873;49.300;8.920;2023-05-01T22:44:05;5.00;;;3.50;;
23400;SDS011;11873;49.300;8.920;2023-05-01T22:49:05;4.83;;;4.33;;
23400;SDS011;11873;49.300;8.920;2023-05-01T22:54:05;8.03;;;4.40;;
23400;SDS011;11873;49.300;8.920;2023-05-01T22:59:05;4.47;;;4.17;;
23400;SDS011;11873;49.300;8.920;2023-05-01T23:04:05;5.40;;;4.03;;
23400;SDS011;11873;49.300;8.920;2023-05-01T23:09:06;5.33;;;4.20;;
23400;SDS011;11873;49.300;8.920;2023-05-01T23:14:06;4.28;;;3.85;;
23400;SDS011;11873;49.300;8.920;2023-05-01T23:19:07;4.20;;;3.80;;
23400;SDS011;11873;49.300;8.920;2023-05-01T23:24:15;5.40;;;4.47;;
23400;SDS011;11873;49.300;8.920;2023-05-01T23:29:15;4.00;;;3.60;;
23400;SDS011;11873;49.300;8.920;2023-05-01T23:34:17;3.93;;;3.63;;
23400;SDS011;11873;49.300;8.920;2023-05-01T23:39:17;4.13;;;3.60;;
23400;SDS011;11873;49.300;8.920;2023-05-01T23:44:17;4.80;;;4.40;;
23400;SDS011;11873;49.300;8.920;2023-05-01T23:49:17;4.63;;;4.13;;
23400;SDS011;11873;49.300;8.920;2023-05-01T23:54:18;5.77;;;4.17;;
23400;SDS011;11873;49.300;8.920;2023-05-01T23:59:18;4.27;;;3.87;;
